createdAt,value
2017-06-24T00:00:35.513Z,18.17
2017-06-24T00:03:02.053Z,18.50
2017-06-24T00:05:28.606Z,17.08
2017-06-24T00:07:55.112Z,17.77
2017-06-24T00:10:21.550Z,17.92
2017-06-24T00:12:47.979Z,17.80
2017-06-24T00:15:14.514Z,17.40
2017-06-24T00:17:40.940Z,17.85
2017-06-24T00:20:07.484Z,17.50
2017-06-24T00:22:33.936Z,17.12
2017-06-24T00:25:00.457Z,17.05
2017-06-24T00:27:26.884Z,16.98
2017-06-24T00:29:53.434Z,17.58
2017-06-24T00:32:19.858Z,17.40
2017-06-24T00:34:46.366Z,16.77
2017-06-24T00:37:13.041Z,16.73
2017-06-24T00:39:39.518Z,16.90
2017-06-24T00:42:06.030Z,16.30
2017-06-24T00:44:33.351Z,16.95
2017-06-24T00:46:59.850Z,16.90
2017-06-24T00:49:26.359Z,16.47
2017-06-24T00:51:52.867Z,16.50
2017-06-24T00:54:19.321Z,16.42
2017-06-24T00:56:45.761Z,15.97
2017-06-24T00:59:12.357Z,16.57
2017-06-24T01:01:38.853Z,16.40
2017-06-24T01:04:05.290Z,16.27
2017-06-24T01:06:31.986Z,15.70
2017-06-24T01:08:58.603Z,15.57
2017-06-24T01:11:25.191Z,15.63
2017-06-24T01:13:51.954Z,16.10
2017-06-24T01:16:18.425Z,15.83
2017-06-24T01:18:44.975Z,16.50
2017-06-24T01:21:12.402Z,17.00
2017-06-24T01:23:39.177Z,15.65
2017-06-24T01:26:05.604Z,15.15
2017-06-24T01:28:32.196Z,15.52
2017-06-24T01:30:58.734Z,15.80
2017-06-24T01:33:25.342Z,15.68
2017-06-24T01:35:51.986Z,15.40
2017-06-24T01:38:19.250Z,15.30
2017-06-24T01:40:45.715Z,15.20
2017-06-24T01:43:12.226Z,15.82
2017-06-24T01:45:39.572Z,15.68
2017-06-24T01:48:06.218Z,15.35
2017-06-24T01:50:32.907Z,14.73
2017-06-24T01:52:59.377Z,15.00
2017-06-24T01:55:25.918Z,15.52
2017-06-24T01:57:52.385Z,16.10
2017-06-24T02:00:18.875Z,15.43
2017-06-24T02:02:45.573Z,15.45
2017-06-24T02:05:12.185Z,15.52
2017-06-24T02:07:38.737Z,16.00
2017-06-24T02:10:05.202Z,15.10
2017-06-24T02:12:31.994Z,15.77
2017-06-24T02:14:58.566Z,15.38
2017-06-24T02:17:25.527Z,15.35
2017-06-24T02:19:51.998Z,15.90
2017-06-24T02:22:18.476Z,14.20
2017-06-24T02:24:45.012Z,15.40
2017-06-24T02:27:11.500Z,14.93
2017-06-24T02:29:37.971Z,14.70
2017-06-24T02:32:04.436Z,15.10
2017-06-24T02:34:31.172Z,14.93
2017-06-24T02:36:57.646Z,14.95
2017-06-24T02:39:24.101Z,15.15
2017-06-24T02:41:50.741Z,15.38
2017-06-24T02:44:17.203Z,15.35
2017-06-24T02:46:43.749Z,15.88
2017-06-24T02:49:10.443Z,16.02
2017-06-24T02:51:37.237Z,14.80
2017-06-24T02:54:03.686Z,15.52
2017-06-24T02:56:30.219Z,15.70
2017-06-24T02:58:56.707Z,15.10
2017-06-24T03:01:23.380Z,14.85
2017-06-24T03:03:49.897Z,15.00
2017-06-24T03:06:16.333Z,15.48
2017-06-24T03:08:42.820Z,15.80
2017-06-24T03:11:09.306Z,14.70
2017-06-24T03:13:35.925Z,15.13
2017-06-24T03:16:02.708Z,14.98
2017-06-24T03:18:29.170Z,15.40
2017-06-24T03:20:55.606Z,15.50
2017-06-24T03:23:22.324Z,15.83
2017-06-24T03:25:49.005Z,14.80
2017-06-24T03:28:15.518Z,15.65
2017-06-24T03:30:42.040Z,14.73
2017-06-24T03:33:08.513Z,15.05
2017-06-24T03:35:34.955Z,14.32
2017-06-24T03:38:01.432Z,14.55
2017-06-24T03:40:28.053Z,14.35
2017-06-24T03:42:54.521Z,15.00
2017-06-24T03:45:21.067Z,14.80
2017-06-24T03:47:47.767Z,14.82
2017-06-24T03:50:15.243Z,14.57
2017-06-24T03:52:42.675Z,14.82
2017-06-24T03:55:09.239Z,14.40
2017-06-24T03:57:35.930Z,13.60
2017-06-24T04:00:03.118Z,13.68
2017-06-24T04:02:29.674Z,14.25
2017-06-24T04:04:56.140Z,12.93
2017-06-24T04:07:23.624Z,13.50
2017-06-24T04:09:50.247Z,13.40
2017-06-24T04:12:16.772Z,12.75
2017-06-24T04:14:43.243Z,13.00
2017-06-24T04:17:09.941Z,12.63
2017-06-24T04:19:36.365Z,12.48
2017-06-24T04:22:02.920Z,12.97
2017-06-24T04:24:29.601Z,12.30
2017-06-24T04:26:56.133Z,12.80
2017-06-24T04:29:22.709Z,12.82
2017-06-24T04:31:49.175Z,12.93
2017-06-24T04:34:15.915Z,12.85
2017-06-24T04:36:42.431Z,13.68
2017-06-24T04:39:08.889Z,12.40
2017-06-24T04:41:35.519Z,12.30
2017-06-24T04:44:02.000Z,12.45
2017-06-24T04:46:28.457Z,12.00
2017-06-24T04:48:54.968Z,11.10
2017-06-24T04:51:21.416Z,10.90
2017-06-24T04:53:47.951Z,11.18
2017-06-24T04:56:14.784Z,10.90
2017-06-24T04:58:42.278Z,11.23
2017-06-24T05:01:08.890Z,10.52
2017-06-24T05:03:36.070Z,9.95
2017-06-24T05:06:02.668Z,10.80
2017-06-24T05:08:29.230Z,10.50
2017-06-24T05:10:55.660Z,10.25
2017-06-24T05:13:22.484Z,10.23
2017-06-24T05:15:48.963Z,10.00
2017-06-24T05:18:15.437Z,10.13
2017-06-24T05:20:42.129Z,10.30
2017-06-24T05:23:09.870Z,10.15
2017-06-24T05:25:36.349Z,8.85
2017-06-24T05:28:03.177Z,9.23
2017-06-24T05:30:29.685Z,9.68
2017-06-24T05:32:56.169Z,8.60
2017-06-24T05:35:22.658Z,8.70
2017-06-24T05:37:49.138Z,8.20
2017-06-24T05:40:15.643Z,8.65
2017-06-24T05:42:43.126Z,7.60
2017-06-24T05:45:09.837Z,7.70
2017-06-24T05:47:36.250Z,7.65
2017-06-24T05:50:03.817Z,7.37
2017-06-24T05:52:30.373Z,8.02
2017-06-24T05:54:56.812Z,8.55
2017-06-24T05:57:23.437Z,7.00
2017-06-24T05:59:49.890Z,6.62
2017-06-24T06:02:16.501Z,7.63
2017-06-24T06:04:42.982Z,7.03
2017-06-24T06:07:09.790Z,7.13
2017-06-24T06:09:36.262Z,7.57
2017-06-24T06:12:02.792Z,7.20
2017-06-24T06:14:29.377Z,6.30
2017-06-24T06:16:56.039Z,6.10
2017-06-24T06:19:22.507Z,6.40
2017-06-24T06:21:48.979Z,6.60
2017-06-24T06:24:15.401Z,6.90
2017-06-24T06:26:41.895Z,6.07
2017-06-24T06:29:08.321Z,5.55
2017-06-24T06:31:36.071Z,7.22
2017-06-24T06:34:02.892Z,5.80
2017-06-24T06:36:29.323Z,5.72
2017-06-24T06:38:55.858Z,6.18
2017-06-24T06:41:22.319Z,5.50
2017-06-24T06:43:48.817Z,5.75
2017-06-24T06:46:15.318Z,6.40
2017-06-24T06:48:41.858Z,5.70
2017-06-24T06:51:08.421Z,6.10
2017-06-24T06:53:34.951Z,5.68
2017-06-24T06:56:01.546Z,5.25
2017-06-24T06:58:28.040Z,6.15
2017-06-24T07:00:54.552Z,5.57
2017-06-24T07:03:21.992Z,5.70
2017-06-24T07:05:48.672Z,6.80
2017-06-24T07:08:15.086Z,5.25
2017-06-24T07:10:41.630Z,5.10
2017-06-24T07:13:08.217Z,4.82
2017-06-24T07:15:34.666Z,5.20
2017-06-24T07:18:01.522Z,5.25
2017-06-24T07:20:28.001Z,5.18
2017-06-24T07:22:54.443Z,5.43
2017-06-24T07:25:20.958Z,4.93
2017-06-24T07:27:47.491Z,5.80
2017-06-24T07:30:14.051Z,5.20
2017-06-24T07:32:40.510Z,5.35
2017-06-24T07:35:07.153Z,5.70
2017-06-24T07:37:33.764Z,5.80
2017-06-24T07:40:00.284Z,4.82
2017-06-24T07:42:26.895Z,5.77
2017-06-24T07:44:53.325Z,5.12
2017-06-24T07:47:20.186Z,4.73
2017-06-24T07:49:47.796Z,4.90
2017-06-24T07:52:14.218Z,5.10
2017-06-24T07:54:40.686Z,5.00
2017-06-24T07:57:07.529Z,4.82
2017-06-24T07:59:34.014Z,4.50
2017-06-24T08:02:00.452Z,4.82
2017-06-24T08:04:26.979Z,6.40
2017-06-24T08:06:53.511Z,5.15
2017-06-24T08:09:20.190Z,4.43
2017-06-24T08:11:46.627Z,4.68
2017-06-24T08:14:14.115Z,4.10
2017-06-24T08:16:40.677Z,4.72
2017-06-24T08:19:07.093Z,4.30
2017-06-24T08:21:33.577Z,5.10
2017-06-24T08:24:00.055Z,5.30
2017-06-24T08:26:26.585Z,4.97
2017-06-24T08:28:53.067Z,6.30
2017-06-24T08:31:19.538Z,5.20
2017-06-24T08:33:46.058Z,5.40
2017-06-24T08:36:12.495Z,5.05
2017-06-24T08:38:38.910Z,5.50
2017-06-24T08:41:05.364Z,5.20
2017-06-24T08:43:31.845Z,5.37
2017-06-24T08:45:58.288Z,5.60
2017-06-24T08:48:24.695Z,5.50
2017-06-24T08:50:51.383Z,5.10
2017-06-24T08:53:17.845Z,5.22
2017-06-24T08:55:44.253Z,6.32
2017-06-24T08:58:10.725Z,5.20
2017-06-24T09:00:37.170Z,5.80
2017-06-24T09:03:03.636Z,5.10
2017-06-24T09:05:30.135Z,5.10
2017-06-24T09:07:56.811Z,5.37
2017-06-24T09:10:23.280Z,5.78
2017-06-24T09:12:49.887Z,5.20
2017-06-24T09:15:16.358Z,6.05
2017-06-24T09:17:43.118Z,5.80
2017-06-24T09:20:09.577Z,5.63
2017-06-24T09:22:36.026Z,6.00
2017-06-24T09:25:02.502Z,5.55
2017-06-24T09:27:28.931Z,5.60
2017-06-24T09:29:55.454Z,5.60
2017-06-24T09:32:21.924Z,6.75
2017-06-24T09:34:48.382Z,5.85
2017-06-24T09:37:15.346Z,6.20
2017-06-24T09:39:41.806Z,5.80
2017-06-24T09:42:08.298Z,5.30
2017-06-24T09:44:34.743Z,5.55
2017-06-24T09:47:01.175Z,5.37
2017-06-24T09:49:29.003Z,5.35
2017-06-24T09:51:55.709Z,6.05
2017-06-24T09:54:22.381Z,5.30
2017-06-24T09:56:48.866Z,5.10
2017-06-24T09:59:15.598Z,5.62
2017-06-24T10:01:42.121Z,7.68
2017-06-24T10:04:08.581Z,5.18
2017-06-24T10:06:35.405Z,5.37
2017-06-24T10:09:01.897Z,7.05
2017-06-24T10:11:28.399Z,5.55
2017-06-24T10:13:54.836Z,5.07
2017-06-24T10:16:21.356Z,5.40
2017-06-24T10:18:47.890Z,5.50
2017-06-24T10:21:14.598Z,4.60
2017-06-24T10:23:41.236Z,5.10
2017-06-24T10:26:07.744Z,5.20
2017-06-24T10:28:34.246Z,5.05
2017-06-24T10:31:01.813Z,5.87
2017-06-24T10:33:28.252Z,5.28
2017-06-24T10:35:54.716Z,5.20
2017-06-24T10:38:21.305Z,4.82
2017-06-24T10:40:47.738Z,4.90
2017-06-24T10:43:14.177Z,5.10
2017-06-24T10:45:40.885Z,5.50
2017-06-24T10:48:07.565Z,5.15
2017-06-24T10:50:34.035Z,5.40
2017-06-24T10:53:00.475Z,5.72
2017-06-24T10:55:27.351Z,5.70
2017-06-24T10:57:53.845Z,5.10
2017-06-24T11:00:20.391Z,4.68
2017-06-24T11:02:46.906Z,5.10
2017-06-24T11:05:13.445Z,4.80
2017-06-24T11:07:39.977Z,4.90
2017-06-24T11:10:07.441Z,5.22
2017-06-24T11:12:34.306Z,5.20
2017-06-24T11:15:00.858Z,5.20
2017-06-24T11:17:27.446Z,5.00
2017-06-24T11:19:53.987Z,5.37
2017-06-24T11:22:20.858Z,5.20
2017-06-24T11:24:48.479Z,5.30
2017-06-24T11:27:15.262Z,5.10
2017-06-24T11:29:41.820Z,4.95
2017-06-24T11:32:08.416Z,4.72
2017-06-24T11:34:35.195Z,5.00
2017-06-24T11:37:02.611Z,4.60
2017-06-24T11:39:29.097Z,4.30
2017-06-24T11:41:55.878Z,4.90
2017-06-24T11:44:22.369Z,4.28
2017-06-24T11:46:48.887Z,4.00
2017-06-24T11:49:15.541Z,4.00
2017-06-24T11:51:42.014Z,4.80
2017-06-24T11:54:09.367Z,4.47
2017-06-24T11:56:35.876Z,5.22
2017-06-24T11:59:02.403Z,4.82
2017-06-24T12:01:29.410Z,5.12
2017-06-24T12:03:55.894Z,4.32
2017-06-24T12:06:22.344Z,4.05
2017-06-24T12:08:48.813Z,4.10
2017-06-24T12:11:15.548Z,4.60
2017-06-24T12:13:42.118Z,4.10
2017-06-24T12:16:09.168Z,4.07
2017-06-24T12:18:35.620Z,4.60
2017-06-24T12:21:02.190Z,4.30
2017-06-24T12:23:28.742Z,4.40
2017-06-24T12:25:55.210Z,3.75
2017-06-24T12:28:22.540Z,7.50
2017-06-24T12:30:48.988Z,4.20
2017-06-24T12:33:15.483Z,3.90
2017-06-24T12:35:42.008Z,4.47
2017-06-24T12:38:08.449Z,4.60
2017-06-24T12:40:35.509Z,4.55
2017-06-24T12:43:02.015Z,4.18
2017-06-24T12:45:29.182Z,5.30
2017-06-24T12:47:56.033Z,4.00
2017-06-24T12:50:22.497Z,4.20
2017-06-24T12:52:49.178Z,4.60
2017-06-24T12:55:16.548Z,4.45
2017-06-24T12:57:43.154Z,4.18
2017-06-24T13:00:09.676Z,4.12
2017-06-24T13:02:36.107Z,4.53
2017-06-24T13:05:02.575Z,4.10
2017-06-24T13:07:29.090Z,4.43
2017-06-24T13:09:55.528Z,5.03
2017-06-24T13:12:22.025Z,8.02
2017-06-24T13:14:48.756Z,4.20
2017-06-24T13:17:15.348Z,4.28
2017-06-24T13:19:41.922Z,4.65
2017-06-24T13:22:08.378Z,4.60
2017-06-24T13:24:35.295Z,4.70
2017-06-24T13:27:01.822Z,5.00
2017-06-24T13:29:28.357Z,4.75
2017-06-24T13:31:55.086Z,4.60
2017-06-24T13:34:21.659Z,4.40
2017-06-24T13:36:48.199Z,5.27
2017-06-24T13:39:14.659Z,5.00
2017-06-24T13:41:41.119Z,5.45
2017-06-24T13:44:07.575Z,8.48
2017-06-24T13:46:34.057Z,7.75
2017-06-24T13:49:00.531Z,4.47
2017-06-24T13:51:27.005Z,4.90
2017-06-24T13:53:53.514Z,4.90
2017-06-24T13:56:19.962Z,5.30
2017-06-24T13:58:46.400Z,4.80
2017-06-24T14:01:12.832Z,4.40
2017-06-24T14:03:39.316Z,4.55
2017-06-24T14:06:05.753Z,4.70
2017-06-24T14:08:32.910Z,5.10
2017-06-24T14:10:59.642Z,5.28
2017-06-24T14:13:26.140Z,5.25
2017-06-24T14:15:52.672Z,5.20
2017-06-24T14:18:19.132Z,5.00
2017-06-24T14:20:45.783Z,5.00
2017-06-24T14:23:27.296Z,4.53
2017-06-24T14:25:53.726Z,5.37
2017-06-24T14:28:20.290Z,5.30
2017-06-24T14:30:48.090Z,4.82
2017-06-24T14:33:14.593Z,5.10
2017-06-24T14:35:41.101Z,5.03
2017-06-24T14:38:07.627Z,5.20
2017-06-24T14:40:34.341Z,4.85
2017-06-24T14:43:00.775Z,4.65
2017-06-24T14:45:27.342Z,4.50
2017-06-24T14:47:53.810Z,4.60
2017-06-24T14:50:20.418Z,4.30
2017-06-24T14:52:48.155Z,4.32
2017-06-24T14:55:14.605Z,4.65
2017-06-24T14:57:41.104Z,4.70
2017-06-24T15:00:07.701Z,4.40
2017-06-24T15:02:34.312Z,5.03
2017-06-24T15:05:00.792Z,5.00
2017-06-24T15:07:27.271Z,4.80
2017-06-24T15:09:53.994Z,4.78
2017-06-24T15:12:20.458Z,4.60
2017-06-24T15:14:47.084Z,4.87
2017-06-24T15:17:13.576Z,5.18
2017-06-24T15:19:41.048Z,4.80
2017-06-24T15:22:22.420Z,5.10
2017-06-24T15:24:48.879Z,4.35
2017-06-24T15:27:15.391Z,4.68
2017-06-24T15:29:44.718Z,4.80
2017-06-24T15:32:11.380Z,5.57
2017-06-24T15:34:39.489Z,4.55
2017-06-24T15:37:06.143Z,6.05
2017-06-24T15:39:32.937Z,4.60
2017-06-24T15:41:59.457Z,4.62
2017-06-24T15:44:25.860Z,4.40
2017-06-24T15:46:52.280Z,4.30
2017-06-24T15:49:19.810Z,4.28
2017-06-24T15:51:46.283Z,4.25
2017-06-24T15:54:12.757Z,4.10
2017-06-24T15:56:39.583Z,5.13
2017-06-24T15:59:06.076Z,4.10
2017-06-24T16:01:32.505Z,3.58
2017-06-24T16:03:58.976Z,4.10
2017-06-24T16:06:25.392Z,4.10
2017-06-24T16:08:51.840Z,3.78
2017-06-24T16:11:18.268Z,4.10
2017-06-24T16:13:44.733Z,4.47
2017-06-24T16:16:11.154Z,4.03
2017-06-24T16:18:37.580Z,3.80
2017-06-24T16:21:04.017Z,4.80
2017-06-24T16:23:30.489Z,4.28
2017-06-24T16:25:56.955Z,4.22
2017-06-24T16:28:23.443Z,4.70
2017-06-24T16:30:49.907Z,3.50
2017-06-24T16:33:16.358Z,3.90
2017-06-24T16:35:42.795Z,3.85
2017-06-24T16:38:09.257Z,3.83
2017-06-24T16:40:35.898Z,3.95
2017-06-24T16:43:02.321Z,4.45
2017-06-24T16:45:28.781Z,3.67
2017-06-24T16:47:55.211Z,3.50
2017-06-24T16:50:21.654Z,9.70
2017-06-24T16:52:48.126Z,4.78
2017-06-24T16:55:14.578Z,3.80
2017-06-24T16:57:41.042Z,3.80
2017-06-24T17:00:07.524Z,6.07
2017-06-24T17:02:33.994Z,4.40
2017-06-24T17:05:00.443Z,4.10
2017-06-24T17:07:26.891Z,4.77
2017-06-24T17:09:53.332Z,5.30
2017-06-24T17:12:19.815Z,4.90
2017-06-24T17:14:46.283Z,6.65
2017-06-24T17:17:12.758Z,4.90
2017-06-24T17:19:39.642Z,5.20
2017-06-24T17:22:06.121Z,5.05
2017-06-24T17:24:32.575Z,5.10
2017-06-24T17:26:59.393Z,5.72
2017-06-24T17:29:25.855Z,4.85
2017-06-24T17:31:52.387Z,6.10
2017-06-24T17:34:18.825Z,4.90
2017-06-24T17:36:45.297Z,4.43
2017-06-24T17:39:11.726Z,4.95
2017-06-24T17:41:38.172Z,4.90
2017-06-24T17:44:04.620Z,5.40
2017-06-24T17:46:31.065Z,4.53
2017-06-24T17:48:57.548Z,4.50
2017-06-24T17:51:23.980Z,4.43
2017-06-24T17:53:50.460Z,4.90
2017-06-24T17:56:17.176Z,4.20
2017-06-24T17:58:43.666Z,3.70
2017-06-24T18:01:10.142Z,3.85
2017-06-24T18:03:36.639Z,4.90
2017-06-24T18:06:03.106Z,4.28
2017-06-24T18:08:29.548Z,3.92
2017-06-24T18:10:56.035Z,3.60
2017-06-24T18:13:22.515Z,3.65
2017-06-24T18:15:48.964Z,3.70
2017-06-24T18:18:15.441Z,3.60
2017-06-24T18:20:41.905Z,3.97
2017-06-24T18:23:08.372Z,3.63
2017-06-24T18:25:34.873Z,3.80
2017-06-24T18:28:01.353Z,3.15
2017-06-24T18:30:27.778Z,4.20
2017-06-24T18:32:54.537Z,3.60
2017-06-24T18:35:20.990Z,3.60
2017-06-24T18:37:47.403Z,3.67
2017-06-24T18:40:13.925Z,3.30
2017-06-24T18:42:40.483Z,3.25
2017-06-24T18:45:06.916Z,3.60
2017-06-24T18:47:33.396Z,3.58
2017-06-24T18:49:59.846Z,3.50
2017-06-24T18:52:26.316Z,3.40
2017-06-24T18:54:52.764Z,3.35
2017-06-24T18:57:19.270Z,4.70
2017-06-24T18:59:45.766Z,3.10
2017-06-24T19:02:12.270Z,3.80
2017-06-24T19:04:38.727Z,3.62
2017-06-24T19:07:05.197Z,4.20
2017-06-24T19:09:31.652Z,3.60
2017-06-24T19:11:58.098Z,3.60
2017-06-24T19:14:24.579Z,4.10
2017-06-24T19:16:51.009Z,3.80
2017-06-24T19:19:17.487Z,4.55
2017-06-24T19:21:43.947Z,4.70
2017-06-24T19:24:10.381Z,5.35
2017-06-24T19:26:36.853Z,5.07
2017-06-24T19:29:03.324Z,4.50
2017-06-24T19:31:29.813Z,3.97
2017-06-24T19:33:56.268Z,3.50
2017-06-24T19:36:22.723Z,3.80
2017-06-24T19:38:49.214Z,4.25
2017-06-24T19:41:15.734Z,4.18
2017-06-24T19:43:42.192Z,3.83
2017-06-24T19:46:08.638Z,4.40
2017-06-24T19:48:35.110Z,3.97
2017-06-24T19:51:01.592Z,3.62
2017-06-24T19:53:28.227Z,3.40
2017-06-24T19:55:54.687Z,3.50
2017-06-24T19:58:21.135Z,3.70
2017-06-24T20:00:47.563Z,4.12
2017-06-24T20:03:14.021Z,4.07
2017-06-24T20:05:40.486Z,3.60
2017-06-24T20:08:07.002Z,3.87
2017-06-24T20:10:33.505Z,4.00
2017-06-24T20:13:00.001Z,3.80
2017-06-24T20:15:26.453Z,3.80
2017-06-24T20:17:52.903Z,4.18
2017-06-24T20:20:19.387Z,4.20
2017-06-24T20:22:45.799Z,3.87
2017-06-24T20:25:12.253Z,5.87
2017-06-24T20:27:38.732Z,4.07
2017-06-24T20:30:05.458Z,4.00
2017-06-24T20:32:31.960Z,4.20
2017-06-24T20:34:58.416Z,4.10
2017-06-24T20:37:24.812Z,4.50
2017-06-24T20:39:51.258Z,4.90
2017-06-24T20:42:17.766Z,5.30
2017-06-24T20:44:44.206Z,4.30
2017-06-24T20:47:12.240Z,4.28
2017-06-24T20:49:38.677Z,5.20
2017-06-24T20:52:05.109Z,4.30
2017-06-24T20:54:31.557Z,4.10
2017-06-24T20:57:39.435Z,3.90
2017-06-24T21:00:06.063Z,4.50
2017-06-24T21:02:32.930Z,4.50
2017-06-24T21:04:59.399Z,4.60
2017-06-24T21:07:25.947Z,4.20
2017-06-24T21:09:52.402Z,3.92
2017-06-24T21:12:18.959Z,4.10
2017-06-24T21:14:45.516Z,3.92
2017-06-24T21:17:11.993Z,4.10
2017-06-24T21:19:38.449Z,4.15
2017-06-24T21:22:04.866Z,4.65
2017-06-24T21:24:32.044Z,11.68
2017-06-24T21:26:59.218Z,15.02
2017-06-24T21:29:26.498Z,16.90
2017-06-24T21:31:53.678Z,21.12
2017-06-24T21:34:20.848Z,13.43
2017-06-24T21:36:47.368Z,7.90
2017-06-24T21:39:13.841Z,5.32
2017-06-24T21:41:40.289Z,5.28
2017-06-24T21:44:06.724Z,5.10
2017-06-24T21:46:33.438Z,4.30
2017-06-24T21:48:59.907Z,5.03
2017-06-24T21:51:26.764Z,4.80
2017-06-24T21:53:53.419Z,4.70
2017-06-24T21:56:19.845Z,4.40
2017-06-24T21:58:46.331Z,5.07
2017-06-24T22:01:12.807Z,4.85
2017-06-24T22:03:39.351Z,4.60
2017-06-24T22:06:05.815Z,5.18
2017-06-24T22:08:32.404Z,5.00
2017-06-24T22:10:59.010Z,5.40
2017-06-24T22:13:26.219Z,5.32
2017-06-24T22:15:52.666Z,5.10
2017-06-24T22:18:19.208Z,5.62
2017-06-24T22:20:45.768Z,5.60
2017-06-24T22:23:12.326Z,5.93
2017-06-24T22:25:38.765Z,5.80
2017-06-24T22:28:05.832Z,5.70
2017-06-24T22:30:33.060Z,5.85
2017-06-24T22:32:59.492Z,6.20
2017-06-24T22:35:25.952Z,6.68
2017-06-24T22:37:52.414Z,6.60
2017-06-24T22:40:18.985Z,7.25
2017-06-24T22:42:45.429Z,7.53
2017-06-24T22:45:11.909Z,7.57
2017-06-24T22:47:38.378Z,7.20
2017-06-24T22:50:05.460Z,7.23
2017-06-24T22:52:31.891Z,7.22
2017-06-24T22:54:58.405Z,7.62
2017-06-24T22:57:24.963Z,7.32
2017-06-24T22:59:51.395Z,7.05
2017-06-24T23:02:17.815Z,8.05
2017-06-24T23:04:44.259Z,7.90
2017-06-24T23:07:10.693Z,7.35
2017-06-24T23:09:37.123Z,7.60
2017-06-24T23:12:04.289Z,8.15
2017-06-24T23:14:30.772Z,7.68
2017-06-24T23:16:57.248Z,7.50
2017-06-24T23:19:23.789Z,7.35
2017-06-24T23:21:50.806Z,6.65
2017-06-24T23:24:17.230Z,6.65
2017-06-24T23:26:43.654Z,6.97
2017-06-24T23:29:10.940Z,6.47
2017-06-24T23:31:38.317Z,6.80
2017-06-24T23:34:04.874Z,6.18
2017-06-24T23:36:31.336Z,6.30
2017-06-24T23:38:57.739Z,5.97
2017-06-24T23:41:24.183Z,5.70
2017-06-24T23:43:50.583Z,5.68
2017-06-24T23:46:17.772Z,5.90
2017-06-24T23:48:44.229Z,6.82
2017-06-24T23:51:10.630Z,5.97
2017-06-24T23:53:37.097Z,5.87
2017-06-24T23:56:03.529Z,5.65
2017-06-24T23:58:29.973Z,5.80
